Valatie, NY

8:36 AM EDT on May 24, 2015 (GMT -0400)
in orchard | | Change Station
CLOSE
Current Station
Personal Weather Station
Location: Valatie, NY
Elevation: 308 ft
Nearby Weather Stations

Elev 308 ft 42.44 °N, 73.69 °W | Updated 0 second ago

Clear
Clear
58.1 °F
Feels Like 58.1 °F
N
8.2
Wind Variable Wind from SSW
Gusts 8.2 mph

Today
High -- | Low -- °F
--% Chance of Precip.
Yesterday
High -- | Low -- °F
Precip. -- in
5:25 AM 8:18 PM
Waxing Crescent, 39% visible
Pressure 30.28 in
Visibility 10.0 miles
Clouds Clear
Dew Point 40 °F
Humidity 51%
Rainfall 0.00 in
Snow Depth Not available.
UV 2 out of 12
Pollen 9.70 out of 12
Air Quality Not available.
Flu Activity Widespread
METAR KPSF 241154Z AUTO 00000KT 10SM CLR 10/03 A3030 RMK AO2 SLP254 T01000028 10100 20006 51007

More Conditions Fewer Conditions

Pressure 30.28 in
Visibility 10.0 miles
Clouds Clear
Dew Point 40 °F
Humidity 51%
Rainfall 0.00 in
Snow Depth Not available.
UV 2 out of 12
Pollen 9.70 out of 12
Air Quality Not available.
Flu Activity Widespread
METAR KPSF 241154Z AUTO 00000KT 10SM CLR 10/03 A3030 RMK AO2 SLP254 T01000028 10100 20006 51007

More Conditions Fewer Conditions

10-Day Weather Forecast

Almanac

Astronomy

May. 24, 2015 Rise Set
Actual Time
Civil Twilight
Nautical Twilight
Astronomical Twilight
Moon
Length of Visible Light
Length of Day
Tomorrow will be .
, % of the Moon is Illuminated

Today's Extremes

State Highs State Lows

Community

WunderPhotos

Upload Photos

1,823,722 photos uploaded!

WunderBlogs® & News

Nearby

Air Quality

  Air Quality AQ Index Pollutant
Not available.

Snow Depth

Station Depth Elevation

Earthquake Activity

City Distance Mag. Time & Date
Minimum magnitude displayed is 2.5.

Coastal Water Temperatures

Place Temperature

Stations

Nearby Weather Stations

Station Location Temp. Windchill Dew Point Humidity Wind Precip. Elev Updated Type